createdAt,value
2018-06-16T00:01:35.545Z,4.60
2018-06-16T00:04:04.088Z,4.13
2018-06-16T00:06:32.647Z,3.80
2018-06-16T00:09:01.201Z,3.50
2018-06-16T00:11:29.799Z,3.93
2018-06-16T00:13:58.383Z,3.97
2018-06-16T00:16:27.023Z,4.10
2018-06-16T00:18:55.625Z,4.43
2018-06-16T00:21:24.271Z,4.40
2018-06-16T00:23:52.876Z,3.97
2018-06-16T00:26:21.334Z,3.70
2018-06-16T00:28:49.966Z,4.13
2018-06-16T00:31:18.595Z,4.23
2018-06-16T00:33:47.212Z,4.23
2018-06-16T00:36:15.789Z,3.97
2018-06-16T00:38:44.350Z,4.43
2018-06-16T00:41:13.003Z,4.03
2018-06-16T00:43:41.523Z,3.77
2018-06-16T00:46:10.145Z,4.10
2018-06-16T00:48:38.695Z,3.67
2018-06-16T00:51:07.226Z,4.13
2018-06-16T00:53:35.811Z,4.60
2018-06-16T00:56:04.434Z,4.77
2018-06-16T00:58:33.076Z,5.03
2018-06-16T01:01:01.760Z,4.93
2018-06-16T01:03:30.301Z,4.50
2018-06-16T01:05:58.819Z,4.03
2018-06-16T01:08:27.431Z,4.40
2018-06-16T01:10:56.116Z,4.83
2018-06-16T01:13:24.684Z,4.33
2018-06-16T01:15:53.269Z,4.77
2018-06-16T01:18:21.910Z,4.53
2018-06-16T01:20:50.480Z,5.13
2018-06-16T01:23:19.015Z,4.87
2018-06-16T01:25:47.542Z,4.97
2018-06-16T01:28:16.028Z,4.77
2018-06-16T01:30:44.535Z,5.03
2018-06-16T01:33:13.034Z,4.50
2018-06-16T01:35:41.523Z,5.00
2018-06-16T01:38:10.236Z,5.33
2018-06-16T01:40:38.835Z,5.27
2018-06-16T01:43:07.519Z,4.60
2018-06-16T01:45:36.087Z,4.97
2018-06-16T01:48:04.792Z,5.00
2018-06-16T01:50:33.509Z,5.43
2018-06-16T01:53:02.062Z,5.07
2018-06-16T01:55:30.542Z,5.17
2018-06-16T01:57:59.060Z,5.30
2018-06-16T02:00:27.591Z,5.47
2018-06-16T02:02:56.150Z,5.27
2018-06-16T02:05:24.615Z,5.37
2018-06-16T02:07:53.264Z,5.57
2018-06-16T02:10:21.759Z,5.00
2018-06-16T02:12:50.447Z,5.27
2018-06-16T02:15:19.197Z,5.20
2018-06-16T02:17:47.721Z,5.47
2018-06-16T02:20:16.238Z,5.27
2018-06-16T02:22:44.693Z,5.43
2018-06-16T02:25:13.233Z,5.47
2018-06-16T02:27:41.700Z,5.77
2018-06-16T02:30:10.251Z,5.13
2018-06-16T02:32:38.844Z,5.33
2018-06-16T02:35:07.339Z,5.53
2018-06-16T02:37:35.834Z,5.40
2018-06-16T02:40:04.382Z,5.80
2018-06-16T02:42:32.841Z,5.57
2018-06-16T02:45:01.379Z,5.60
2018-06-16T02:47:29.902Z,5.57
2018-06-16T02:49:58.482Z,5.27
2018-06-16T02:52:26.962Z,5.30
2018-06-16T02:54:55.519Z,5.33
2018-06-16T02:57:24.083Z,5.60
2018-06-16T02:59:52.639Z,5.67
2018-06-16T03:02:21.191Z,6.03
2018-06-16T03:04:49.700Z,5.20
2018-06-16T03:07:18.427Z,6.33
2018-06-16T03:09:47.241Z,5.60
2018-06-16T03:12:15.737Z,6.63
2018-06-16T03:14:44.183Z,6.37
2018-06-16T03:17:12.702Z,5.67
2018-06-16T03:19:41.242Z,6.00
2018-06-16T03:22:09.858Z,5.80
2018-06-16T03:24:38.326Z,6.10
2018-06-16T03:27:06.905Z,5.70
2018-06-16T03:29:35.531Z,5.90
2018-06-16T03:32:04.919Z,6.17
2018-06-16T03:34:33.475Z,5.83
2018-06-16T03:37:01.965Z,5.63
2018-06-16T03:39:30.582Z,6.00
2018-06-16T03:41:59.052Z,6.47
2018-06-16T03:44:27.687Z,5.87
2018-06-16T03:46:56.160Z,6.07
2018-06-16T03:49:24.747Z,5.80
2018-06-16T03:51:53.244Z,5.83
2018-06-16T03:54:21.871Z,6.40
2018-06-16T03:56:50.443Z,5.63
2018-06-16T03:59:19.040Z,5.80
2018-06-16T04:01:47.608Z,6.10
2018-06-16T04:04:16.194Z,6.20
2018-06-16T04:06:44.709Z,6.40
2018-06-16T04:09:13.159Z,5.97
2018-06-16T04:11:41.708Z,6.27
2018-06-16T04:14:10.337Z,5.87
2018-06-16T04:16:38.938Z,5.87
2018-06-16T04:19:07.440Z,6.47
2018-06-16T04:21:36.039Z,6.37
2018-06-16T04:24:04.623Z,6.37
2018-06-16T04:26:33.256Z,5.83
2018-06-16T04:29:01.920Z,6.10
2018-06-16T04:31:30.611Z,6.27
2018-06-16T04:33:59.261Z,5.97
2018-06-16T04:36:27.856Z,6.33
2018-06-16T04:38:56.427Z,6.40
2018-06-16T04:41:24.987Z,5.93
2018-06-16T04:43:53.582Z,6.20
2018-06-16T04:46:22.145Z,5.83
2018-06-16T04:48:50.873Z,6.30
2018-06-16T04:51:19.403Z,5.77
2018-06-16T04:53:48.044Z,6.10
2018-06-16T04:56:16.599Z,6.20
2018-06-16T04:58:45.224Z,6.27
2018-06-16T05:01:13.766Z,5.67
2018-06-16T05:03:42.278Z,5.77
2018-06-16T05:06:11.146Z,5.80
2018-06-16T05:08:39.890Z,6.03
2018-06-16T05:11:08.675Z,6.20
2018-06-16T05:13:37.223Z,6.23
2018-06-16T05:16:06.542Z,6.80
2018-06-16T05:18:35.230Z,6.20
2018-06-16T05:21:03.897Z,6.40
2018-06-16T05:23:32.575Z,5.40
2018-06-16T05:26:01.274Z,5.43
2018-06-16T05:28:29.938Z,5.90
2018-06-16T05:30:58.578Z,5.87
2018-06-16T05:33:27.370Z,5.97
2018-06-16T05:35:56.075Z,5.20
2018-06-16T05:38:24.877Z,7.57
2018-06-16T05:40:53.687Z,5.90
2018-06-16T05:43:22.207Z,5.70
2018-06-16T05:45:50.934Z,5.90
2018-06-16T05:48:19.589Z,6.33
2018-06-16T05:50:48.480Z,5.93
2018-06-16T05:53:17.239Z,7.23
2018-06-16T05:55:45.975Z,6.30
2018-06-16T05:58:14.606Z,6.20
2018-06-16T06:00:43.325Z,6.73
2018-06-16T06:03:11.980Z,5.93
2018-06-16T06:05:40.598Z,6.47
2018-06-16T06:08:09.220Z,7.20
2018-06-16T06:10:38.022Z,6.13
2018-06-16T06:13:06.715Z,6.67
2018-06-16T06:15:35.625Z,7.43
2018-06-16T06:18:04.354Z,6.63
2018-06-16T06:20:33.002Z,5.50
2018-06-16T06:23:02.286Z,5.80
2018-06-16T06:25:30.817Z,5.70
2018-06-16T06:27:59.771Z,5.43
2018-06-16T06:30:28.429Z,6.13
2018-06-16T06:32:57.013Z,4.77
2018-06-16T06:35:25.482Z,5.63
2018-06-16T06:37:54.451Z,5.20
2018-06-16T06:40:23.827Z,5.73
2018-06-16T06:42:52.589Z,4.90
2018-06-16T06:45:21.213Z,6.17
2018-06-16T06:47:49.866Z,6.10
2018-06-16T06:50:18.859Z,5.43
2018-06-16T06:52:47.545Z,5.17
2018-06-16T06:55:16.246Z,6.50
2018-06-16T06:57:45.062Z,6.73
2018-06-16T07:00:13.706Z,5.63
2018-06-16T07:02:42.398Z,5.60
2018-06-16T07:05:11.380Z,5.40
2018-06-16T07:07:40.242Z,11.13
2018-06-16T07:10:08.952Z,16.47
2018-06-16T07:12:37.657Z,5.50
2018-06-16T07:15:06.421Z,5.77
2018-06-16T07:17:35.150Z,5.43
2018-06-16T07:20:03.905Z,4.97
2018-06-16T07:22:32.606Z,4.60
2018-06-16T07:25:01.202Z,5.20
2018-06-16T07:27:29.849Z,4.70
2018-06-16T07:29:58.471Z,4.43
2018-06-16T07:32:31.515Z,4.37
2018-06-16T07:35:00.110Z,4.27
2018-06-16T07:37:28.830Z,4.47
2018-06-16T07:39:59.366Z,4.87
2018-06-16T07:42:28.213Z,4.77
2018-06-16T07:44:56.828Z,4.80
2018-06-16T07:47:25.528Z,5.10
2018-06-16T07:49:54.220Z,4.23
2018-06-16T07:52:23.015Z,5.40
2018-06-16T07:54:51.725Z,3.70
2018-06-16T07:57:20.500Z,3.90
2018-06-16T07:59:49.165Z,3.73
2018-06-16T08:02:17.707Z,4.77
2018-06-16T08:04:47.341Z,4.00
2018-06-16T08:07:16.055Z,4.20
2018-06-16T08:12:34.156Z,4.00
2018-06-16T08:15:09.243Z,4.80
2018-06-16T08:17:37.933Z,5.23
2018-06-16T08:20:15.034Z,4.87
2018-06-16T08:22:43.779Z,4.17
2018-06-16T08:25:14.680Z,3.87
2018-06-16T08:27:43.207Z,3.97
2018-06-16T08:30:11.828Z,4.47
2018-06-16T08:32:40.361Z,3.97
2018-06-16T08:35:09.099Z,4.03
2018-06-16T08:37:37.775Z,4.40
2018-06-16T08:40:06.611Z,4.12
2018-06-16T08:42:35.341Z,4.50
2018-06-16T08:45:03.950Z,3.98
2018-06-16T08:47:32.564Z,3.77
2018-06-16T08:50:01.233Z,3.98
2018-06-16T08:52:29.906Z,4.00
2018-06-16T08:54:58.537Z,3.77
2018-06-16T08:57:28.901Z,4.10
2018-06-16T08:59:57.663Z,4.27
2018-06-16T09:02:26.307Z,4.47
2018-06-16T09:04:56.105Z,4.22
2018-06-16T09:07:29.369Z,4.30
2018-06-16T09:10:01.536Z,4.35
2018-06-16T09:12:30.411Z,4.42
2018-06-16T09:14:59.043Z,4.67
2018-06-16T09:17:27.719Z,4.80
2018-06-16T09:19:56.452Z,4.47
2018-06-16T09:22:25.201Z,4.30
2018-06-16T09:24:54.391Z,5.22
2018-06-16T09:27:23.329Z,4.87
2018-06-16T09:29:51.909Z,4.62
2018-06-16T09:32:20.615Z,4.67
2018-06-16T09:34:49.456Z,3.92
2018-06-16T09:37:18.140Z,4.65
2018-06-16T09:39:46.771Z,4.80
2018-06-16T09:42:15.646Z,5.10
2018-06-16T09:44:45.735Z,5.08
2018-06-16T09:47:25.183Z,5.37
2018-06-16T09:49:53.938Z,4.42
2018-06-16T09:52:22.752Z,4.22
2018-06-16T09:54:51.567Z,4.50
2018-06-16T09:57:20.243Z,4.03
2018-06-16T09:59:48.934Z,4.75
2018-06-16T10:02:17.693Z,2.95
2018-06-16T10:04:46.314Z,2.67
2018-06-16T10:07:14.895Z,3.27
2018-06-16T10:09:43.532Z,3.00
2018-06-16T10:12:12.214Z,3.10
2018-06-16T10:14:41.019Z,3.25
2018-06-16T10:17:09.692Z,3.42
2018-06-16T10:19:38.383Z,3.87
2018-06-16T10:22:07.092Z,3.12
2018-06-16T10:24:35.900Z,3.15
2018-06-16T10:27:05.430Z,3.65
2018-06-16T10:29:34.155Z,3.67
2018-06-16T10:32:03.005Z,3.67
2018-06-16T10:34:31.693Z,3.37
2018-06-16T10:37:00.736Z,3.67
2018-06-16T10:39:29.583Z,3.17
2018-06-16T10:41:58.429Z,3.20
2018-06-16T10:44:27.171Z,3.65
2018-06-16T10:46:56.155Z,3.72
2018-06-16T10:49:24.795Z,3.52
2018-06-16T10:51:53.500Z,3.50
2018-06-16T10:54:22.073Z,3.45
2018-06-16T10:56:50.670Z,3.30
2018-06-16T10:59:19.340Z,3.35
2018-06-16T11:01:48.036Z,3.22
2018-06-16T11:04:16.662Z,3.50
2018-06-16T11:06:45.482Z,2.65
2018-06-16T11:09:14.216Z,3.05
2018-06-16T11:11:42.791Z,3.22
2018-06-16T11:14:11.416Z,3.12
2018-06-16T11:16:40.060Z,2.95
2018-06-16T11:19:08.734Z,3.15
2018-06-16T11:21:37.610Z,2.52
2018-06-16T11:24:06.285Z,3.12
2018-06-16T11:26:34.854Z,3.15
2018-06-16T11:29:03.527Z,3.08
2018-06-16T11:31:32.243Z,3.02
2018-06-16T11:34:00.939Z,3.30
2018-06-16T11:36:29.729Z,3.00
2018-06-16T11:38:58.557Z,2.27
2018-06-16T11:41:27.176Z,2.92
2018-06-16T11:43:55.839Z,2.47
2018-06-16T11:46:24.482Z,2.92
2018-06-16T11:48:53.276Z,3.37
2018-06-16T11:51:22.015Z,3.70
2018-06-16T11:53:50.635Z,3.60
2018-06-16T11:56:19.399Z,3.02
2018-06-16T11:58:48.106Z,3.47
2018-06-16T12:01:16.840Z,3.33
2018-06-16T12:03:45.456Z,3.63
2018-06-16T12:06:14.190Z,2.87
2018-06-16T12:08:42.803Z,4.77
2018-06-16T12:11:11.522Z,3.80
2018-06-16T12:13:40.380Z,3.43
2018-06-16T12:16:08.979Z,3.57
2018-06-16T12:18:37.484Z,2.83
2018-06-16T12:21:06.036Z,3.53
2018-06-16T12:23:34.644Z,3.33
2018-06-16T12:26:03.367Z,3.63
2018-06-16T12:28:31.923Z,3.03
2018-06-16T12:31:00.533Z,2.80
2018-06-16T12:33:29.107Z,3.70
2018-06-16T12:35:57.864Z,3.37
2018-06-16T12:38:26.512Z,2.93
2018-06-16T12:40:55.358Z,3.20
2018-06-16T12:43:24.222Z,3.57
2018-06-16T12:45:53.319Z,4.20
2018-06-16T12:48:22.155Z,3.73
2018-06-16T12:50:51.022Z,3.37
2018-06-16T12:53:19.955Z,3.40
2018-06-16T12:55:48.757Z,3.00
2018-06-16T12:58:17.372Z,2.93
2018-06-16T13:00:46.117Z,3.10
2018-06-16T13:03:14.794Z,3.13
2018-06-16T13:05:43.644Z,3.63
2018-06-16T13:08:12.228Z,3.23
2018-06-16T13:10:40.979Z,4.07
2018-06-16T13:13:09.704Z,4.87
2018-06-16T13:15:38.655Z,3.50
2018-06-16T13:18:07.363Z,3.23
2018-06-16T13:20:36.008Z,3.20
2018-06-16T13:23:04.691Z,4.80
2018-06-16T13:25:33.548Z,4.37
2018-06-16T13:28:02.480Z,4.23
2018-06-16T13:30:31.254Z,3.87
2018-06-16T13:33:00.310Z,4.77
2018-06-16T13:35:28.905Z,4.37
2018-06-16T13:37:57.608Z,4.40
2018-06-16T13:40:26.224Z,3.70
2018-06-16T13:42:54.816Z,3.93
2018-06-16T13:45:23.990Z,4.77
2018-06-16T13:47:52.726Z,4.97
2018-06-16T13:50:25.089Z,4.80
2018-06-16T13:52:53.714Z,4.57
2018-06-16T13:55:22.456Z,4.57
2018-06-16T13:57:51.111Z,4.93
2018-06-16T14:00:19.782Z,5.93
2018-06-16T14:02:49.215Z,5.03
2018-06-16T14:05:18.113Z,4.93
2018-06-16T14:07:46.783Z,5.20
2018-06-16T14:10:15.424Z,4.87
2018-06-16T14:12:43.987Z,4.80
2018-06-16T14:15:13.175Z,5.00
2018-06-16T14:17:41.891Z,4.50
2018-06-16T14:20:10.929Z,4.40
2018-06-16T14:22:39.876Z,4.30
2018-06-16T14:25:08.580Z,4.57
2018-06-16T14:27:37.149Z,4.50
2018-06-16T14:30:05.730Z,4.47
2018-06-16T14:32:34.414Z,4.70
2018-06-16T14:35:02.999Z,4.97
2018-06-16T14:37:31.592Z,4.90
2018-06-16T14:40:00.284Z,4.23
2018-06-16T14:42:28.953Z,4.10
2018-06-16T14:44:57.991Z,4.37
2018-06-16T14:47:27.512Z,4.80
2018-06-16T14:49:56.279Z,5.23
2018-06-16T14:52:24.940Z,4.67
2018-06-16T14:54:53.821Z,4.47
2018-06-16T14:57:22.660Z,5.70
2018-06-16T14:59:51.499Z,4.50
2018-06-16T15:02:20.355Z,5.80
2018-06-16T15:04:49.094Z,4.93
2018-06-16T15:07:17.636Z,3.80
2018-06-16T15:09:46.270Z,4.07
2018-06-16T15:12:15.259Z,3.87
2018-06-16T15:14:43.872Z,2.90
2018-06-16T15:17:12.654Z,3.60
2018-06-16T15:19:41.308Z,3.03
2018-06-16T15:22:09.956Z,3.10
2018-06-16T15:24:38.640Z,3.20
2018-06-16T15:27:07.428Z,4.07
2018-06-16T15:29:36.192Z,4.40
2018-06-16T15:32:04.862Z,3.47
2018-06-16T15:34:33.633Z,3.47
2018-06-16T15:37:02.531Z,3.47
2018-06-16T15:39:31.292Z,3.97
2018-06-16T15:42:00.035Z,4.27
2018-06-16T15:44:28.698Z,4.50
2018-06-16T15:46:57.489Z,3.93
2018-06-16T15:49:26.195Z,7.03
2018-06-16T15:51:54.999Z,7.70
2018-06-16T15:54:23.937Z,3.57
2018-06-16T15:56:52.670Z,3.87
2018-06-16T15:59:21.473Z,4.00
2018-06-16T16:01:50.339Z,3.43
2018-06-16T16:04:19.164Z,3.33
2018-06-16T16:06:47.879Z,3.23
2018-06-16T16:09:16.510Z,3.47
2018-06-16T16:11:45.149Z,3.43
2018-06-16T16:14:13.847Z,3.40
2018-06-16T16:16:42.501Z,3.60
2018-06-16T16:19:11.106Z,4.63
2018-06-16T16:21:39.906Z,8.50
2018-06-16T16:24:08.893Z,5.37
2018-06-16T16:26:37.543Z,3.93
2018-06-16T16:29:06.276Z,3.60
2018-06-16T16:31:34.983Z,3.63
2018-06-16T16:34:03.591Z,6.13
2018-06-16T16:36:32.220Z,5.93
2018-06-16T16:39:00.818Z,9.73
2018-06-16T16:41:29.421Z,8.27
2018-06-16T16:43:58.062Z,5.00
2018-06-16T16:46:26.688Z,6.53
2018-06-16T16:48:55.371Z,5.77
2018-06-16T16:51:24.076Z,5.57
2018-06-16T16:53:52.784Z,7.30
2018-06-16T16:56:21.429Z,7.10
2018-06-16T16:58:50.028Z,6.63
2018-06-16T17:01:18.556Z,10.33
2018-06-16T17:03:47.163Z,8.27
2018-06-16T17:06:15.698Z,7.57
2018-06-16T17:08:44.421Z,9.23
2018-06-16T17:11:13.379Z,9.50
2018-06-16T17:13:42.160Z,8.17
2018-06-16T17:16:10.889Z,7.43
2018-06-16T17:18:39.494Z,8.53
2018-06-16T17:21:08.154Z,7.47
2018-06-16T17:23:36.820Z,8.20
2018-06-16T17:26:05.505Z,7.93
2018-06-16T17:28:34.191Z,7.67
2018-06-16T17:31:02.785Z,9.60
2018-06-16T17:33:31.308Z,8.70
2018-06-16T17:36:00.096Z,8.77
2018-06-16T17:38:28.683Z,11.07
2018-06-16T17:40:57.422Z,12.53
2018-06-16T17:43:26.294Z,8.27
2018-06-16T17:45:55.083Z,7.60
2018-06-16T17:48:24.136Z,8.40
2018-06-16T17:50:52.982Z,7.23
2018-06-16T17:53:21.720Z,7.80
2018-06-16T17:55:50.392Z,8.80
2018-06-16T17:58:19.081Z,8.20
2018-06-16T18:00:47.546Z,10.90
2018-06-16T18:03:16.305Z,10.70
2018-06-16T18:05:44.988Z,9.27
2018-06-16T18:08:13.683Z,8.53
2018-06-16T18:10:42.196Z,10.40
2018-06-16T18:13:10.770Z,8.50
2018-06-16T18:15:39.338Z,8.93
2018-06-16T18:18:07.882Z,11.43
2018-06-16T18:20:36.344Z,8.50
2018-06-16T18:23:04.843Z,8.00
2018-06-16T18:25:33.373Z,7.67
2018-06-16T18:28:01.991Z,8.60
2018-06-16T18:30:30.880Z,8.50
2018-06-16T18:32:59.673Z,8.00
2018-06-16T18:35:28.313Z,8.77
2018-06-16T18:37:56.917Z,8.33
2018-06-16T18:40:25.437Z,7.63
2018-06-16T18:42:53.891Z,8.27
2018-06-16T18:45:23.255Z,8.00
2018-06-16T18:47:51.913Z,8.70
2018-06-16T18:50:20.473Z,7.83
2018-06-16T18:52:49.030Z,8.47
2018-06-16T18:55:17.593Z,8.03
2018-06-16T18:57:46.065Z,9.07
2018-06-16T19:00:14.885Z,8.70
2018-06-16T19:02:43.688Z,9.97
2018-06-16T19:05:12.328Z,9.43
2018-06-16T19:07:40.953Z,9.00
2018-06-16T19:10:09.973Z,9.37
2018-06-16T19:12:38.630Z,9.00
2018-06-16T19:15:07.276Z,8.80
2018-06-16T19:17:35.839Z,8.17
2018-06-16T19:20:04.632Z,8.50
2018-06-16T19:22:33.118Z,8.50
2018-06-16T19:25:01.642Z,8.07
2018-06-16T19:27:30.303Z,8.17
2018-06-16T19:29:58.990Z,9.00
2018-06-16T19:32:27.697Z,9.83
2018-06-16T19:34:56.387Z,9.50
2018-06-16T19:37:25.102Z,9.47
2018-06-16T19:39:53.970Z,9.63
2018-06-16T19:42:22.716Z,9.27
2018-06-16T19:44:51.411Z,13.67
2018-06-16T19:47:20.031Z,12.97
2018-06-16T19:49:48.781Z,12.50
2018-06-16T19:52:17.470Z,11.87
2018-06-16T19:54:46.116Z,10.47
2018-06-16T19:57:14.814Z,9.97
2018-06-16T19:59:43.533Z,11.20
2018-06-16T20:02:12.189Z,10.83
2018-06-16T20:04:40.920Z,10.60
2018-06-16T20:07:09.637Z,10.30
2018-06-16T20:09:38.317Z,10.73
2018-06-16T20:12:07.012Z,11.20
2018-06-16T20:14:35.715Z,9.97
2018-06-16T20:17:04.454Z,10.97
2018-06-16T20:19:33.350Z,10.83
2018-06-16T20:22:02.034Z,10.10
2018-06-16T20:24:30.822Z,11.30
2018-06-16T20:26:59.536Z,10.73
2018-06-16T20:29:28.498Z,10.67
2018-06-16T20:31:57.188Z,10.63
2018-06-16T20:34:25.944Z,11.53
2018-06-16T20:36:54.652Z,11.97
2018-06-16T20:39:23.263Z,11.63
2018-06-16T20:41:52.111Z,12.17
2018-06-16T20:44:20.813Z,12.23
2018-06-16T20:46:49.450Z,12.97
2018-06-16T20:49:18.174Z,12.30
2018-06-16T20:51:46.832Z,12.17
2018-06-16T20:54:15.530Z,14.47
2018-06-16T20:56:44.508Z,14.83
2018-06-16T20:59:13.188Z,14.00
2018-06-16T21:01:41.959Z,12.87
2018-06-16T21:04:10.589Z,12.27
2018-06-16T21:06:39.280Z,13.20
2018-06-16T21:09:09.825Z,13.20
2018-06-16T21:11:38.449Z,12.77
2018-06-16T21:14:07.257Z,13.40
2018-06-16T21:16:36.179Z,12.10
2018-06-16T21:19:04.891Z,14.60
2018-06-16T21:21:33.792Z,13.63
2018-06-16T21:24:02.613Z,12.67
2018-06-16T21:26:31.477Z,13.10
2018-06-16T21:29:00.104Z,13.50
2018-06-16T21:31:28.735Z,13.50
2018-06-16T21:33:57.398Z,12.90
2018-06-16T21:36:26.159Z,13.50
2018-06-16T21:38:54.691Z,12.87
2018-06-16T21:41:23.398Z,14.57
2018-06-16T21:43:52.267Z,14.83
2018-06-16T21:46:20.989Z,15.67
2018-06-16T21:48:49.639Z,14.90
2018-06-16T21:51:18.374Z,15.97
2018-06-16T21:53:47.157Z,15.60
2018-06-16T21:56:15.873Z,16.03
2018-06-16T21:58:44.600Z,17.93
2018-06-16T22:01:13.159Z,16.73
2018-06-16T22:03:41.766Z,17.70
2018-06-16T22:06:10.445Z,18.60
2018-06-16T22:08:39.051Z,19.43
2018-06-16T22:11:07.866Z,20.70
2018-06-16T22:13:36.606Z,21.30
2018-06-16T22:16:05.162Z,21.10
2018-06-16T22:18:33.872Z,21.87
2018-06-16T22:21:02.440Z,21.93
2018-06-16T22:23:31.008Z,23.07
2018-06-16T22:25:59.512Z,22.70
2018-06-16T22:28:28.126Z,22.00
2018-06-16T22:30:56.777Z,23.13
2018-06-16T22:33:25.428Z,23.10
2018-06-16T22:35:54.080Z,23.23
2018-06-16T22:38:22.733Z,22.43
2018-06-16T22:40:51.498Z,22.00
2018-06-16T22:43:20.138Z,21.67
2018-06-16T22:45:48.882Z,21.53
2018-06-16T22:48:17.428Z,21.03
2018-06-16T22:50:46.183Z,21.17
2018-06-16T22:53:14.946Z,21.60
2018-06-16T22:55:43.781Z,21.37
2018-06-16T22:58:12.534Z,20.13
2018-06-16T23:00:41.613Z,21.10
2018-06-16T23:03:10.200Z,20.57
2018-06-16T23:05:39.066Z,21.10
2018-06-16T23:08:07.709Z,21.07
2018-06-16T23:10:36.292Z,20.23
2018-06-16T23:13:05.005Z,19.20
2018-06-16T23:15:33.688Z,18.50
2018-06-16T23:18:02.338Z,20.63
2018-06-16T23:20:30.855Z,20.10
2018-06-16T23:22:59.411Z,20.37
2018-06-16T23:25:27.975Z,20.57
2018-06-16T23:27:56.477Z,21.97
2018-06-16T23:30:25.100Z,20.57
2018-06-16T23:32:53.735Z,21.10
2018-06-16T23:35:22.226Z,20.00
2018-06-16T23:37:51.064Z,20.80
2018-06-16T23:40:19.654Z,20.13
2018-06-16T23:42:48.265Z,21.17
2018-06-16T23:45:16.784Z,20.37
2018-06-16T23:47:45.340Z,20.43
2018-06-16T23:50:13.876Z,20.10
2018-06-16T23:52:42.592Z,19.83
2018-06-16T23:55:11.099Z,19.30
2018-06-16T23:57:39.850Z,18.73
